Time;durP1;ratioP1;P1;durP2;ratioP2;P2;SDS_P1;SDS_P2;PMS_P1;PMS_P2;Temp;Humidity;BMP_temperature;BMP_pressure;BME280_temperature;BME280_humidity;BME280_pressure;Samples;Min_cycle;Max_cycle;Signal;HPM_P1;HPM_P2
2022/07/06 07:02:32;;;;;;;;;5.00;3.67;;;;;21.66;48.98;102420.75;5113361;27;45712;-88
2022/07/06 07:04:58;;;;;;;;;3.67;3.67;;;;;21.83;48.95;102419.50;5087173;27;45469;-84
2022/07/06 07:07:23;;;;;;;;;3.67;3.67;;;;;22.06;48.81;102422.28;5103279;27;45531;-85
2022/07/06 07:09:48;;;;;;;;;3.33;3.33;;;;;22.35;48.11;102421.88;5102340;27;45444;-85
2022/07/06 07:12:16;;;;;;;;;4.00;4.00;;;;;22.64;48.38;102415.16;5096092;27;47925;-83
2022/07/06 07:14:42;;;;;;;;;3.67;3.67;;;;;22.96;47.91;102411.72;5107835;27;45512;-84
2022/07/06 07:17:07;;;;;;;;;5.00;4.00;;;;;23.27;47.33;102406.53;5096560;27;45477;-85
2022/07/06 07:19:33;;;;;;;;;4.00;4.00;;;;;23.59;46.92;102410.28;5097920;27;45438;-84
2022/07/06 07:21:58;;;;;;;;;4.33;4.33;;;;;23.89;46.76;102418.63;5104283;27;48028;-83
2022/07/06 07:24:23;;;;;;;;;4.00;4.00;;;;;24.17;46.51;102405.47;5103343;27;45368;-82
2022/07/06 07:26:49;;;;;;;;;3.33;3.33;;;;;24.44;45.94;102413.03;5102306;27;45415;-81
2022/07/06 07:29:14;;;;;;;;;1.33;1.33;;;;;24.68;45.55;102406.44;5095525;27;45757;-84
2022/07/06 07:31:39;;;;;;;;;3.00;3.00;;;;;24.91;45.19;102409.00;5103783;27;45594;-82
2022/07/06 07:34:05;;;;;;;;;2.33;2.00;;;;;25.13;44.97;102418.78;5090989;27;45488;-83
2022/07/06 07:36:30;;;;;;;;;3.00;3.00;;;;;25.34;44.44;102417.81;5094140;27;45456;-82
2022/07/06 07:38:55;;;;;;;;;3.33;3.33;;;;;25.51;44.39;102415.44;5095256;27;45345;-81
2022/07/06 07:41:21;;;;;;;;;4.00;3.67;;;;;25.70;44.03;102416.47;5102368;27;46215;-80
2022/07/06 07:43:46;;;;;;;;;3.00;3.00;;;;;25.84;43.74;102415.19;5105761;27;45486;-83
2022/07/06 07:46:11;;;;;;;;;4.00;3.00;;;;;26.00;43.72;102425.47;5094483;27;45743;-83
2022/07/06 07:48:37;;;;;;;;;3.00;3.00;;;;;26.15;43.71;102414.97;5099863;27;45433;-81
2022/07/06 07:51:02;;;;;;;;;3.00;3.00;;;;;26.27;43.16;102422.03;5094725;27;50874;-83
2022/07/06 07:53:28;;;;;;;;;3.33;3.33;;;;;26.40;43.15;102416.25;5093274;27;45394;-82
2022/07/06 07:55:53;;;;;;;;;3.00;3.00;;;;;26.52;42.83;102411.50;5107185;27;45756;-85
2022/07/06 07:58:19;;;;;;;;;3.00;3.00;;;;;26.61;43.26;102409.75;5097973;27;45764;-83
2022/07/06 08:00:45;;;;;;;;;3.00;3.00;;;;;26.69;42.63;102409.00;5097610;27;45547;-85
2022/07/06 08:03:11;;;;;;;;;3.00;3.00;;;;;26.79;42.93;102407.09;5091098;27;45347;-83
2022/07/06 08:05:36;;;;;;;;;4.00;3.00;;;;;26.87;42.32;102402.75;5103612;27;45914;-83
2022/07/06 08:08:01;;;;;;;;;3.33;3.33;;;;;26.92;41.05;102401.28;5098107;27;45519;-78
2022/07/06 08:10:27;;;;;;;;;5.33;5.00;;;;;26.99;39.28;102404.28;5099731;27;45280;-78
2022/07/06 08:12:52;;;;;;;;;5.00;3.67;;;;;26.96;38.11;102397.28;5080674;27;45595;-79
2022/07/06 08:15:18;;;;;;;;;4.33;4.33;;;;;26.92;37.59;102403.16;5081762;27;45669;-79
2022/07/06 08:17:43;;;;;;;;;4.67;4.33;;;;;26.86;38.28;102403.75;5085356;27;45500;-79
2022/07/06 08:20:09;;;;;;;;;3.67;3.00;;;;;26.80;37.38;102402.47;5091204;27;48752;-79
2022/07/06 08:22:37;;;;;;;;;3.33;3.33;;;;;26.77;37.07;102394.63;5090185;27;45656;-80
2022/07/06 08:25:05;;;;;;;;;5.00;5.00;;;;;26.77;36.93;102389.19;5086976;27;45437;-79
2022/07/06 08:27:30;;;;;;;;;3.33;3.33;;;;;26.77;37.44;102398.19;5087909;27;45354;-80
2022/07/06 08:29:55;;;;;;;;;3.67;3.67;;;;;26.77;37.00;102394.63;5089564;27;45961;-79
2022/07/06 08:32:21;;;;;;;;;4.00;4.00;;;;;26.80;37.49;102399.75;5089048;27;45492;-79
2022/07/06 08:34:47;;;;;;;;;3.67;3.67;;;;;26.88;37.12;102399.00;5086805;27;45602;-78
2022/07/06 08:37:12;;;;;;;;;2.00;2.00;;;;;26.95;37.35;102395.59;5085952;27;45558;-79
2022/07/06 08:39:37;;;;;;;;;4.33;4.33;;;;;27.04;37.98;102401.97;5095189;27;46266;-79
2022/07/06 08:42:03;;;;;;;;;3.00;3.00;;;;;27.12;37.84;102401.22;5094193;27;45422;-80
2022/07/06 08:44:29;;;;;;;;;2.67;2.67;;;;;27.20;37.50;102403.16;5088775;27;45421;-81
2022/07/06 08:46:57;;;;;;;;;5.00;5.00;;;;;27.26;37.38;102402.53;5088233;27;45478;-80
2022/07/06 08:49:25;;;;;;;;;4.00;4.00;;;;;27.35;37.46;102400.78;5090076;27;45978;-81
2022/07/06 08:51:51;;;;;;;;;3.00;3.00;;;;;27.42;37.54;102401.84;5098517;27;44783;-81
2022/07/06 08:54:18;;;;;;;;;3.00;3.00;;;;;27.49;36.84;102405.69;5109365;27;45440;-81
2022/07/06 08:56:43;;;;;;;;;3.00;3.00;;;;;27.54;36.24;102396.19;5089808;27;45362;-78
2022/07/06 08:59:10;;;;;;;;;4.00;4.00;;;;;27.57;36.37;102391.28;5088713;27;45475;-79
2022/07/06 09:01:38;;;;;;;;;3.00;3.00;;;;;27.62;36.25;102393.53;5082319;27;46130;-81
2022/07/06 09:04:06;;;;;;;;;5.67;3.00;;;;;27.67;37.16;102399.38;5086273;27;45418;-81
2022/07/06 09:06:33;;;;;;;;;2.67;2.67;;;;;27.72;36.39;102398.94;5081566;27;46444;-82
2022/07/06 09:09:01;;;;;;;;;4.67;4.33;;;;;27.76;36.51;102400.34;5082839;27;45629;-81
2022/07/06 09:11:26;;;;;;;;;2.67;2.67;;;;;27.79;36.50;102394.53;5085578;27;45815;-81
2022/07/06 09:13:52;;;;;;;;;4.67;4.00;;;;;27.85;37.04;102403.97;5085786;27;50235;-80
2022/07/06 09:16:26;;;;;;;;;3.00;3.00;;;;;27.91;36.94;102397.03;5086205;27;45627;-80
2022/07/06 09:18:52;;;;;;;;;3.00;3.00;;;;;27.95;36.66;102392.97;5084372;27;47438;-79
2022/07/06 09:21:38;;;;;;;;;4.67;4.67;;;;;27.99;37.17;102395.22;5083793;27;45501;-79
2022/07/06 09:24:10;;;;;;;;;3.00;3.00;;;;;28.05;37.25;102395.59;5084801;27;45653;-80
2022/07/06 09:26:36;;;;;;;;;3.67;3.67;;;;;28.08;36.65;102389.81;5081338;27;45804;-80
2022/07/06 09:29:01;;;;;;;;;4.67;4.67;;;;;28.11;37.15;102382.16;5086187;27;45887;-84
2022/07/06 09:31:27;;;;;;;;;4.33;4.33;;;;;28.16;36.86;102378.97;5081956;27;45497;-84
2022/07/06 09:34:10;;;;;;;;;4.33;4.33;;;;;28.20;36.89;102385.78;5089610;27;46023;-82
2022/07/06 09:36:49;;;;;;;;;4.00;4.00;;;;;28.23;36.22;102384.63;5087184;27;45497;-79
2022/07/06 09:39:19;;;;;;;;;4.00;4.00;;;;;28.24;34.71;102379.03;5089699;27;45768;-77
2022/07/06 09:41:45;;;;;;;;;2.67;2.67;;;;;28.23;35.37;102377.31;5074545;27;46057;-81
2022/07/06 09:44:11;;;;;;;;;6.00;4.33;;;;;28.23;35.83;102377.31;5076084;27;45339;-81
2022/07/06 09:46:41;;;;;;;;;5.67;4.00;;;;;28.24;35.98;102372.72;5094553;27;45611;-78
2022/07/06 09:49:06;;;;;;;;;4.00;2.00;;;;;28.26;36.09;102371.56;5081169;27;45552;-78
2022/07/06 09:51:35;;;;;;;;;6.67;6.67;;;;;28.28;36.27;102374.09;5080247;27;45405;-79
2022/07/06 09:54:00;;;;;;;;;6.67;4.00;;;;;28.33;36.03;102379.97;5082576;27;45496;-79
2022/07/06 09:56:55;;;;;;;;;5.00;5.00;;;;;28.35;35.80;102380.66;5083595;27;50496;-78
2022/07/06 09:59:28;;;;;;;;;4.67;4.67;;;;;28.41;36.21;102379.16;5083676;27;45537;-78
2022/07/06 10:01:57;;;;;;;;;4.33;4.33;;;;;28.42;36.72;102386.31;5083244;27;45595;-78
2022/07/06 10:04:23;;;;;;;;;3.00;3.00;;;;;28.47;36.35;102383.94;5083277;27;45403;-79
2022/07/06 10:06:50;;;;;;;;;2.67;2.67;;;;;28.51;36.14;102384.47;5091324;27;45668;-77
2022/07/06 10:09:15;;;;;;;;;5.00;4.33;;;;;28.54;36.32;102384.16;5075072;27;47050;-78
2022/07/06 10:11:45;;;;;;;;;3.00;3.00;;;;;28.57;35.93;102388.44;5078025;27;45189;-77
2022/07/06 10:14:13;;;;;;;;;4.33;4.33;;;;;28.57;36.05;102382.97;5082469;27;45477;-79
2022/07/06 10:16:39;;;;;;;;;6.00;4.00;;;;;28.59;36.89;102386.38;5084656;27;45444;-79
2022/07/06 10:19:06;;;;;;;;;2.67;2.67;;;;;28.62;36.06;102391.53;5086605;27;46034;-79
2022/07/06 10:21:36;;;;;;;;;3.33;3.33;;;;;28.65;36.83;102391.22;5087167;27;46711;-78
2022/07/06 10:24:03;;;;;;;;;5.00;3.67;;;;;28.67;36.96;102384.56;5086024;27;45488;-86
2022/07/06 10:26:30;;;;;;;;;3.00;3.00;;;;;28.69;36.84;102376.19;5087425;27;45474;-80
2022/07/06 10:28:58;;;;;;;;;6.00;3.67;;;;;28.70;36.70;102368.84;5092400;27;47094;-80
2022/07/06 10:31:24;;;;;;;;;8.33;6.00;;;;;28.71;34.99;102365.97;5086074;27;45600;-82
2022/07/06 10:33:50;;;;;;;;;5.33;3.33;;;;;28.69;34.26;102365.25;5090151;27;45384;-77
2022/07/06 10:36:16;;;;;;;;;5.33;5.00;;;;;28.67;34.77;102365.44;5083154;27;45445;-78
2022/07/06 10:38:49;;;;;;;;;5.67;4.00;;;;;28.64;35.18;102362.16;5080678;27;45807;-77
2022/07/06 10:41:14;;;;;;;;;4.00;4.00;;;;;28.64;35.72;102370.34;5077816;27;45410;-82
2022/07/06 10:43:43;;;;;;;;;4.67;3.33;;;;;28.64;35.47;102373.09;5080586;27;45350;-81
2022/07/06 10:46:15;;;;;;;;;5.67;4.33;;;;;28.67;35.83;102365.44;5081969;27;46221;-79
2022/07/06 10:48:42;;;;;;;;;3.00;3.00;;;;;28.70;35.97;102366.13;5079113;27;46362;-79
2022/07/06 10:51:10;;;;;;;;;4.00;4.00;;;;;28.73;36.00;102366.63;5082157;27;45805;-80
2022/07/06 10:53:39;;;;;;;;;4.33;4.33;;;;;28.76;35.22;102371.78;5074899;27;45934;-80
2022/07/06 10:56:06;;;;;;;;;3.67;3.67;;;;;28.79;35.50;102370.59;5075236;27;45552;-78
2022/07/06 10:58:56;;;;;;;;;4.00;4.00;;;;;28.79;35.66;102365.13;5079147;27;46171;-79
2022/07/06 11:01:21;;;;;;;;;5.33;5.00;;;;;28.77;35.76;102367.19;5076524;27;45466;-87
2022/07/06 11:03:49;;;;;;;;;3.00;3.00;;;;;28.78;35.70;102361.53;5085201;27;45505;-81
2022/07/06 11:06:23;;;;;;;;;4.00;4.00;;;;;28.79;33.94;102368.72;5068967;27;45580;-82
2022/07/06 11:08:59;;;;;;;;;5.33;5.33;;;;;28.76;34.03;102373.66;5067587;27;47094;-82
2022/07/06 11:11:48;;;;;;;;;3.00;3.00;;;;;28.70;33.95;102358.78;5072432;27;47640;-83
2022/07/06 11:14:15;;;;;;;;;4.33;4.33;;;;;28.64;33.47;102360.28;5067138;27;45644;-84
2022/07/06 11:16:46;;;;;;;;;4.67;4.67;;;;;28.62;33.48;102359.63;5069768;27;46060;-83
2022/07/06 11:19:14;;;;;;;;;3.00;3.00;;;;;28.57;33.90;102344.75;5072405;27;46356;-86
2022/07/06 11:21:43;;;;;;;;;3.33;3.33;;;;;28.55;33.57;102347.63;5074000;27;45653;-86
2022/07/06 11:24:12;;;;;;;;;4.00;4.00;;;;;28.50;33.59;102339.94;5087531;27;45526;-84
2022/07/06 11:26:38;;;;;;;;;5.33;4.00;;;;;28.48;33.93;102344.69;5081434;27;45694;-84
2022/07/06 11:29:06;;;;;;;;;5.00;4.33;;;;;28.47;33.91;102339.38;5064782;27;48198;-83
2022/07/06 11:31:36;;;;;;;;;4.00;4.00;;;;;28.45;33.55;102346.91;5067289;27;45564;-84
2022/07/06 11:34:03;;;;;;;;;2.00;2.00;;;;;28.43;34.08;102338.88;5072238;27;45574;-87
2022/07/06 11:36:29;;;;;;;;;4.00;4.00;;;;;28.42;33.90;102337.16;5066389;27;46241;-83
2022/07/06 11:38:54;;;;;;;;;4.67;4.33;;;;;28.43;34.53;102327.94;5066038;27;46038;-83
2022/07/06 11:41:19;;;;;;;;;4.00;4.00;;;;;28.47;34.01;102333.94;5063880;27;46209;-81
2022/07/06 11:43:47;;;;;;;;;5.00;5.00;;;;;28.48;34.17;102333.75;5066481;27;46355;-83
2022/07/06 11:46:19;;;;;;;;;4.00;4.00;;;;;28.52;34.66;102328.81;5063475;27;45557;-82
2022/07/06 11:48:59;;;;;;;;;4.00;4.00;;;;;28.55;34.95;102331.25;5067610;27;47014;-83
2022/07/06 11:51:28;;;;;;;;;3.33;3.33;;;;;28.57;34.85;102337.38;5066750;27;46960;-81
2022/07/06 11:53:55;;;;;;;;;4.00;4.00;;;;;28.61;35.24;102324.28;5068222;27;45561;-80
2022/07/06 11:56:25;;;;;;;;;3.33;3.33;;;;;28.63;34.83;102320.34;5066961;27;46154;-78
2022/07/06 11:58:51;;;;;;;;;3.00;3.00;;;;;28.66;34.84;102321.91;5068407;27;46397;-80
2022/07/06 12:01:17;;;;;;;;;3.67;3.67;;;;;28.69;35.25;102320.72;5069859;27;47153;-80
2022/07/06 12:03:44;;;;;;;;;4.00;4.00;;;;;28.71;34.89;102321.38;5069195;27;45511;-82
2022/07/06 12:06:21;;;;;;;;;4.00;4.00;;;;;28.74;34.90;102310.13;5066272;27;47106;-81
2022/07/06 12:08:49;;;;;;;;;4.00;3.67;;;;;28.76;35.14;102311.69;5066612;27;47060;-83
2022/07/06 12:11:25;;;;;;;;;4.00;4.00;;;;;28.79;35.32;102314.09;5067611;27;47214;-82
2022/07/06 12:13:52;;;;;;;;;5.33;4.33;;;;;28.82;34.90;102309.31;5073514;27;45600;-84
2022/07/06 12:16:19;;;;;;;;;3.67;3.67;;;;;28.85;35.29;102317.19;5069278;27;45542;-88
2022/07/06 12:18:47;;;;;;;;;4.00;4.00;;;;;28.88;35.39;102317.72;5067943;27;46369;-87
2022/07/06 12:21:20;;;;;;;;;3.00;3.00;;;;;28.91;35.69;102324.72;5069234;27;45540;-84
2022/07/06 12:23:48;;;;;;;;;6.00;4.00;;;;;28.93;35.56;102309.00;5071422;27;45694;-86
2022/07/06 12:26:15;;;;;;;;;3.00;3.00;;;;;28.95;36.07;102301.50;5070819;27;45522;-86
2022/07/06 12:28:42;;;;;;;;;9.00;4.00;;;;;28.98;35.83;102300.31;5067074;27;46219;-81
2022/07/06 12:31:08;;;;;;;;;3.67;3.67;;;;;29.00;35.78;102301.84;5072113;27;45776;-84
2022/07/06 12:33:33;;;;;;;;;5.67;5.00;;;;;29.03;35.64;102303.41;5069225;27;45489;-88
2022/07/06 12:36:15;;;;;;;;;4.67;4.33;;;;;29.04;35.77;102299.63;5069049;27;45856;-82
2022/07/06 12:38:46;;;;;;;;;3.67;3.67;;;;;29.06;36.21;102294.88;5069403;27;46212;-83
2022/07/06 12:41:46;;;;;;;;;4.33;4.33;;;;;29.07;35.89;102293.84;5079536;27;45708;-93
2022/07/06 12:44:11;;;;;;;;;4.33;4.33;;;;;29.10;36.08;102295.38;5087543;27;45385;-85
2022/07/06 12:46:41;;;;;;;;;5.00;3.00;;;;;29.12;36.28;102282.38;5079481;27;45488;-82
2022/07/06 12:49:23;;;;;;;;;4.00;4.00;;;;;29.09;35.01;102283.56;5070492;27;46181;-77
2022/07/06 12:51:58;;;;;;;;;8.00;5.00;;;;;29.12;34.77;102293.31;5070013;27;47138;-80
2022/07/06 12:54:27;;;;;;;;;5.00;4.00;;;;;29.09;34.28;102290.94;5081575;27;45461;-82
2022/07/06 12:57:05;;;;;;;;;5.00;5.00;;;;;29.08;33.79;102286.47;5097651;27;46597;-90
2022/07/06 12:59:31;;;;;;;;;3.67;3.67;;;;;29.03;33.94;102276.94;5087738;27;45579;-84
2022/07/06 13:01:57;;;;;;;;;5.33;5.33;;;;;29.05;33.56;102277.59;5097507;27;45419;-80
2022/07/06 13:04:25;;;;;;;;;4.67;4.67;;;;;29.03;34.07;102276.06;5096034;27;45448;-83
2022/07/06 13:06:50;;;;;;;;;5.00;5.00;;;;;29.01;33.89;102280.88;5098217;27;45373;-84
2022/07/06 13:09:16;;;;;;;;;5.33;5.33;;;;;28.98;33.33;102271.09;5097809;27;46283;-80
2022/07/06 13:11:42;;;;;;;;;6.67;6.67;;;;;28.96;33.96;102267.69;5081086;27;45749;-78
2022/07/06 13:14:08;;;;;;;;;5.00;5.00;;;;;28.95;33.53;102262.38;5095715;27;45540;-78
2022/07/06 13:16:34;;;;;;;;;6.33;6.33;;;;;28.92;33.81;102258.97;5085251;27;45476;-83
2022/07/06 13:19:01;;;;;;;;;6.33;6.33;;;;;28.93;33.92;102248.88;5092879;27;45532;-80
2022/07/06 13:21:26;;;;;;;;;6.00;6.00;;;;;28.91;33.49;102248.22;5087137;27;45565;-81
2022/07/06 13:23:51;;;;;;;;;5.67;4.67;;;;;28.89;33.40;102248.38;5097852;27;45867;-82
2022/07/06 13:26:17;;;;;;;;;6.00;6.00;;;;;28.90;33.63;102255.53;5089231;27;45473;-82
2022/07/06 13:28:42;;;;;;;;;5.67;4.00;;;;;28.90;33.49;102247.34;5085753;27;53112;-80
2022/07/06 13:31:07;;;;;;;;;6.00;6.00;;;;;28.91;33.58;102242.75;5086360;27;51679;-78
2022/07/06 13:33:33;;;;;;;;;6.00;6.00;;;;;28.90;33.28;102230.13;5091967;27;45877;-80
2022/07/06 13:35:58;;;;;;;;;5.67;5.67;;;;;28.89;33.60;102226.50;5083011;27;45381;-79
2022/07/06 13:38:24;;;;;;;;;5.33;5.33;;;;;28.89;33.92;102218.31;5095468;27;45483;-84
2022/07/06 13:40:50;;;;;;;;;5.00;5.00;;;;;28.88;33.64;102221.19;5078824;27;45350;-79
2022/07/06 13:43:15;;;;;;;;;5.00;5.00;;;;;28.86;33.38;102215.91;5097019;27;46083;-80
2022/07/06 13:45:40;;;;;;;;;5.33;5.33;;;;;28.87;33.75;102216.75;5094470;27;47253;-80
2022/07/06 13:48:06;;;;;;;;;4.33;4.33;;;;;28.87;33.42;102222.22;5097495;27;46154;-79
2022/07/06 13:50:32;;;;;;;;;6.00;6.00;;;;;28.85;33.35;102219.66;5098371;27;54067;-86
2022/07/06 13:52:58;;;;;;;;;7.33;7.33;;;;;28.86;33.48;102215.03;5084709;27;45484;-80
2022/07/06 13:55:23;;;;;;;;;5.33;5.33;;;;;28.86;33.31;102209.59;5104961;27;45384;-80
2022/07/06 13:57:49;;;;;;;;;5.67;4.67;;;;;28.85;33.64;102200.53;5107575;27;45318;-82
2022/07/06 14:00:14;;;;;;;;;5.67;5.67;;;;;28.87;33.49;102197.63;5099215;27;45647;-81
2022/07/06 14:02:40;;;;;;;;;6.33;6.33;;;;;28.86;34.00;102194.06;5092549;27;45266;-84
2022/07/06 14:05:06;;;;;;;;;4.67;4.67;;;;;28.86;33.15;102191.31;5087756;27;45457;-80
2022/07/06 14:07:32;;;;;;;;;6.33;6.00;;;;;28.86;33.82;102190.44;5090326;27;46335;-88
2022/07/06 14:09:57;;;;;;;;;7.00;7.00;;;;;28.86;33.47;102188.59;5091390;27;45706;-80
2022/07/06 14:12:24;;;;;;;;;5.67;4.67;;;;;28.84;33.12;102187.88;5094292;27;45515;-86
2022/07/06 14:14:50;;;;;;;;;4.67;4.67;;;;;28.85;33.64;102183.28;5095050;27;45383;-88
2022/07/06 14:17:15;;;;;;;;;6.33;6.33;;;;;28.84;33.72;102185.16;5092837;27;46778;-86
2022/07/06 14:19:40;;;;;;;;;4.33;4.33;;;;;28.84;33.85;102182.41;5078795;27;45628;-86
2022/07/06 14:22:06;;;;;;;;;5.33;5.33;;;;;28.84;33.86;102181.56;5087707;27;45518;-87
2022/07/06 14:24:31;;;;;;;;;7.33;6.00;;;;;28.85;33.55;102178.66;5093093;27;45340;-87
2022/07/06 14:26:57;;;;;;;;;5.00;5.00;;;;;28.85;33.37;102175.94;5088240;27;45394;-86
